Time;durP1;ratioP1;P1;durP2;ratioP2;P2;SDS_P1;SDS_P2;PMS_P1;PMS_P2;Temp;Humidity;BMP_temperature;BMP_pressure;BME280_temperature;BME280_humidity;BME280_pressure;Samples;Min_cycle;Max_cycle;Signal;HPM_P1;HPM_P2
2021/07/15 00:00:37;;;;;;;11.67;7.17;;;;;;;21.88;71.34;100572.75;5016210;28;20485;-51
2021/07/15 00:03:06;;;;;;;10.17;6.83;;;;;;;22.03;71.25;100581.38;5015331;28;20499;-47
2021/07/15 00:05:35;;;;;;;14.10;6.23;;;;;;;21.94;70.72;100582.38;5015947;28;20520;-45
2021/07/15 00:08:03;;;;;;;10.10;6.37;;;;;;;21.97;71.19;100588.47;5015097;28;20497;-50
2021/07/15 00:10:36;;;;;;;11.20;6.67;;;;;;;22.03;70.72;100592.78;5016174;28;20504;-47
2021/07/15 00:13:05;;;;;;;11.90;7.00;;;;;;;22.14;70.75;100594.44;5014404;28;20487;-45
2021/07/15 00:15:36;;;;;;;9.93;6.80;;;;;;;22.32;70.18;100598.66;5015827;28;20464;-48
2021/07/15 00:18:06;;;;;;;9.70;6.07;;;;;;;22.26;70.03;100600.44;5014897;28;20477;-49
2021/07/15 00:20:36;;;;;;;9.00;6.00;;;;;;;22.34;69.77;100589.88;5016114;28;20481;-49
2021/07/15 00:23:04;;;;;;;10.90;6.17;;;;;;;22.26;69.57;100595.19;5014886;28;20480;-46
2021/07/15 00:25:31;;;;;;;13.80;6.90;;;;;;;22.64;69.60;100586.97;5015592;28;20883;-49
2021/07/15 00:27:59;;;;;;;11.40;7.80;;;;;;;22.34;69.89;100586.34;5014779;28;20485;-48
2021/07/15 00:30:27;;;;;;;10.37;6.07;;;;;;;22.17;70.61;100595.28;5015479;28;20477;-49
2021/07/15 00:32:55;;;;;;;8.97;5.77;;;;;;;22.04;70.56;100593.66;5011677;28;20482;-48
2021/07/15 00:35:23;;;;;;;9.20;5.20;;;;;;;22.17;70.36;100583.91;5015364;28;20497;-49
2021/07/15 00:37:51;;;;;;;9.80;6.20;;;;;;;22.10;70.57;100578.69;5014746;28;20479;-50
2021/07/15 00:40:18;;;;;;;10.20;5.57;;;;;;;22.15;70.56;100576.03;5015434;28;20488;-48
2021/07/15 00:42:46;;;;;;;7.30;4.93;;;;;;;22.26;69.83;100563.66;5011400;28;20482;-47
2021/07/15 00:45:17;;;;;;;8.17;5.30;;;;;;;22.07;69.77;100557.72;5015572;28;20461;-49
2021/07/15 00:47:45;;;;;;;8.27;5.30;;;;;;;22.28;70.27;100560.13;5014245;28;20489;-48
2021/07/15 00:50:15;;;;;;;12.03;5.03;;;;;;;22.38;69.44;100551.28;5015682;28;20478;-50
2021/07/15 00:52:44;;;;;;;9.57;4.90;;;;;;;22.33;69.44;100553.09;5014665;28;20564;-49
2021/07/15 00:55:13;;;;;;;6.60;5.10;;;;;;;22.26;69.51;100558.41;5015486;28;20468;-47
2021/07/15 00:57:41;;;;;;;6.83;4.50;;;;;;;22.28;69.61;100547.88;5014113;28;20499;-48
2021/07/15 01:00:10;;;;;;;9.63;6.53;;;;;;;22.50;69.73;100534.50;5015385;28;20491;-45
2021/07/15 01:02:38;;;;;;;6.60;4.67;;;;;;;22.34;69.76;100525.91;5014256;28;20485;-48
2021/07/15 01:05:09;;;;;;;9.30;5.23;;;;;;;22.29;69.70;100525.97;5015561;28;20491;-44
2021/07/15 01:07:38;;;;;;;8.93;5.90;;;;;;;22.33;69.48;100532.06;5013709;28;20481;-46
2021/07/15 01:10:08;;;;;;;11.87;6.40;;;;;;;22.22;69.95;100535.69;5015121;28;20489;-51
2021/07/15 01:12:48;;;;;;;12.10;6.63;;;;;;;22.34;69.59;100539.06;5013883;28;20760;-48
2021/07/15 01:15:17;;;;;;;10.90;7.33;;;;;;;22.33;69.68;100539.94;5015498;28;20468;-48
2021/07/15 01:17:53;;;;;;;10.33;7.43;;;;;;;22.18;69.98;100541.84;5013641;28;20898;-47
2021/07/15 01:20:54;;;;;;;14.17;7.83;;;;;;;22.29;69.84;100540.88;5015127;28;20831;-48
2021/07/15 01:23:44;;;;;;;20.53;8.67;;;;;;;22.31;69.88;100552.25;4968436;28;20466;-47
2021/07/15 01:26:21;;;;;;;15.50;8.27;;;;;;;22.34;69.79;100549.56;5017529;28;20798;-50
2021/07/15 01:29:05;;;;;;;14.57;9.07;;;;;;;22.15;70.25;100554.16;5019085;28;20491;-46
2021/07/15 01:31:35;;;;;;;17.53;10.37;;;;;;;22.16;70.24;100555.88;5017801;28;20556;-49
2021/07/15 01:34:03;;;;;;;17.27;9.43;;;;;;;22.11;70.41;100562.03;5019278;28;20495;-48
2021/07/15 01:36:32;;;;;;;13.40;8.70;;;;;;;22.29;70.33;100556.66;5017455;28;20949;-49
2021/07/15 01:39:06;;;;;;;18.10;8.83;;;;;;;22.15;70.52;100557.63;5019109;28;20457;-48
2021/07/15 01:41:38;;;;;;;12.33;8.00;;;;;;;21.93;70.94;100559.59;5017792;28;20880;-47
2021/07/15 01:44:08;;;;;;;18.87;10.23;;;;;;;21.79;71.55;100557.09;5005348;28;20468;-50
2021/07/15 01:46:37;;;;;;;17.90;10.20;;;;;;;21.67;72.08;100561.53;4997728;28;20484;-50
2021/07/15 01:49:06;;;;;;;18.13;10.40;;;;;;;21.54;72.26;100559.88;4999127;28;20577;-47
2021/07/15 01:51:34;;;;;;;16.03;9.90;;;;;;;21.56;72.76;100563.34;4998028;28;20470;-48
2021/07/15 01:54:02;;;;;;;17.17;10.07;;;;;;;21.62;72.60;100571.19;4999163;28;20472;-50
2021/07/15 01:56:31;;;;;;;14.80;9.80;;;;;;;21.67;72.80;100573.75;4997420;28;20488;-49
2021/07/15 01:58:59;;;;;;;15.50;9.60;;;;;;;21.68;72.66;100579.00;4999012;28;20557;-49
2021/07/15 02:01:26;;;;;;;16.43;10.27;;;;;;;21.70;72.81;100574.63;4997425;28;20500;-50
2021/07/15 02:03:57;;;;;;;17.80;10.50;;;;;;;21.83;72.34;100579.78;4998783;28;20899;-46
2021/07/15 02:06:26;;;;;;;22.50;11.07;;;;;;;21.84;72.29;100582.41;4997844;28;20597;-50
2021/07/15 02:08:54;;;;;;;12.67;8.60;;;;;;;21.79;72.18;100589.47;4998934;28;20489;-46
2021/07/15 02:11:23;;;;;;;15.97;8.60;;;;;;;21.68;72.44;100586.00;4998012;28;20474;-48
2021/07/15 02:13:51;;;;;;;14.50;8.47;;;;;;;21.61;72.78;100579.94;4998430;28;20457;-47
2021/07/15 02:16:19;;;;;;;15.30;7.37;;;;;;;21.66;72.73;100583.41;4997506;28;20502;-52
2021/07/15 02:18:47;;;;;;;12.50;6.57;;;;;;;21.61;72.54;100582.56;4998731;28;20473;-48
2021/07/15 02:21:17;;;;;;;7.70;5.60;;;;;;;21.51;72.64;100584.38;4997637;28;20548;-47
2021/07/15 02:23:45;;;;;;;8.60;4.90;;;;;;;21.39;73.15;100587.94;4998687;28;20496;-48
2021/07/15 02:26:13;;;;;;;9.17;4.60;;;;;;;21.43;73.17;100589.66;4997279;28;20473;-48
2021/07/15 02:28:41;;;;;;;7.90;4.20;;;;;;;21.59;72.85;100595.69;4998148;28;20458;-46
2021/07/15 02:31:12;;;;;;;5.00;3.60;;;;;;;21.43;72.46;100587.03;4999473;28;20928;-48
2021/07/15 02:33:44;;;;;;;6.40;3.90;;;;;;;21.45;72.62;100597.53;4998336;28;20484;-47
2021/07/15 02:36:12;;;;;;;6.57;3.70;;;;;;;21.36;72.73;100587.97;4996164;28;20796;-48
2021/07/15 02:38:42;;;;;;;5.90;3.70;;;;;;;21.51;72.38;100604.50;4998026;28;20471;-50
2021/07/15 02:41:09;;;;;;;7.70;3.03;;;;;;;21.29;72.50;100610.72;4996578;28;20770;-45
2021/07/15 02:43:37;;;;;;;5.87;3.40;;;;;;;21.29;72.35;100617.75;4997989;28;20461;-49
2021/07/15 02:46:04;;;;;;;10.10;2.90;;;;;;;21.25;72.37;100626.50;4998994;28;20473;-50
2021/07/15 02:48:32;;;;;;;6.07;2.97;;;;;;;21.37;72.26;100626.44;4998109;28;20457;-46
2021/07/15 02:51:00;;;;;;;6.10;3.60;;;;;;;21.35;72.02;100628.22;4996613;28;20489;-50
2021/07/15 02:53:27;;;;;;;7.67;3.57;;;;;;;21.41;71.99;100627.28;4997903;28;20461;-46
2021/07/15 02:56:01;;;;;;;4.07;2.50;;;;;;;21.27;72.12;100635.25;4996265;28;20887;-46
2021/07/15 02:58:34;;;;;;;4.40;2.53;;;;;;;21.20;71.86;100641.38;4997840;28;20832;-46
2021/07/15 03:01:03;;;;;;;4.10;2.67;;;;;;;21.30;71.57;100643.97;4996899;28;20473;-47
2021/07/15 03:03:37;;;;;;;5.27;2.97;;;;;;;21.32;71.35;100651.81;4997957;28;20561;-47
2021/07/15 03:06:08;;;;;;;3.20;2.10;;;;;;;21.30;71.31;100645.72;4996000;28;20470;-45
2021/07/15 03:08:40;;;;;;;6.83;2.57;;;;;;;21.44;70.88;100654.38;4997533;28;20903;-50
2021/07/15 03:11:09;;;;;;;5.47;2.50;;;;;;;21.41;70.67;100651.78;4996412;28;20501;-51
2021/07/15 03:13:39;;;;;;;5.93;2.70;;;;;;;21.55;70.57;100648.22;4997722;28;20473;-47
2021/07/15 03:16:06;;;;;;;4.70;2.10;;;;;;;21.52;70.27;100642.97;4995864;28;20481;-48
2021/07/15 03:18:35;;;;;;;44.90;30.40;;;;;;;21.65;70.46;100628.91;4997416;28;20462;-49
2021/07/15 03:21:04;;;;;;;4.87;3.00;;;;;;;21.59;70.08;100640.31;4995630;28;20481;-48
2021/07/15 03:23:34;;;;;;;7.93;2.63;;;;;;;21.47;70.20;100639.53;4997401;28;20462;-49
2021/07/15 03:26:02;;;;;;;4.27;2.57;;;;;;;21.38;70.57;100637.81;4995725;28;20492;-46
2021/07/15 03:28:32;;;;;;;7.00;2.80;;;;;;;21.36;70.66;100632.56;4999856;28;20469;-48
2021/07/15 03:31:04;;;;;;;8.40;2.97;;;;;;;21.25;70.55;100623.88;4995548;28;20486;-47
2021/07/15 03:33:33;;;;;;;4.90;2.97;;;;;;;21.11;71.21;100618.69;4997039;28;20461;-47
2021/07/15 03:36:00;;;;;;;7.80;3.13;;;;;;;21.10;71.34;100630.94;4996060;28;20465;-48
2021/07/15 03:38:28;;;;;;;4.77;3.10;;;;;;;21.14;71.43;100626.56;4997255;28;20466;-48
2021/07/15 03:40:56;;;;;;;6.43;3.37;;;;;;;21.18;71.55;100623.03;4996195;28;20481;-48
2021/07/15 03:43:24;;;;;;;7.10;3.37;;;;;;;21.20;71.15;100629.16;4996866;28;20466;-47
2021/07/15 03:45:53;;;;;;;4.70;3.00;;;;;;;21.21;71.32;100637.91;4995635;28;20465;-48
2021/07/15 03:48:23;;;;;;;5.33;2.93;;;;;;;21.04;71.49;100638.81;4996660;28;20489;-49
2021/07/15 03:50:51;;;;;;;7.00;4.53;;;;;;;20.97;71.77;100642.34;4995744;28;20495;-49
2021/07/15 03:53:18;;;;;;;9.33;3.87;;;;;;;20.80;72.55;100652.88;4996771;28;20492;-46
2021/07/15 03:55:47;;;;;;;4.80;3.30;;;;;;;20.81;72.42;100663.31;4995738;28;20473;-47
2021/07/15 03:58:15;;;;;;;11.33;6.50;;;;;;;20.94;72.74;100660.69;4996537;28;20493;-46
2021/07/15 04:00:45;;;;;;;4.60;3.10;;;;;;;21.06;72.25;100665.91;4995752;28;20492;-48
2021/07/15 04:03:19;;;;;;;4.60;3.30;;;;;;;21.13;72.06;100666.78;4996724;28;20579;-49
2021/07/15 04:05:47;;;;;;;3.97;2.80;;;;;;;21.13;71.89;100662.38;4995258;28;20462;-48
2021/07/15 04:08:16;;;;;;;12.40;6.23;;;;;;;21.17;71.72;100658.88;4996282;28;20488;-48
2021/07/15 04:10:44;;;;;;;7.37;3.90;;;;;;;20.96;71.97;100659.81;4995130;28;20493;-47
2021/07/15 04:13:14;;;;;;;6.70;3.80;;;;;;;21.03;72.08;100660.69;4996494;28;20477;-51
2021/07/15 04:16:00;;;;;;;6.70;3.07;;;;;;;21.09;71.64;100667.66;4995204;28;20448;-50
2021/07/15 04:18:34;;;;;;;10.60;6.60;;;;;;;21.09;71.75;100665.03;4996408;28;20896;-46
2021/07/15 04:21:02;;;;;;;6.20;4.40;;;;;;;21.07;71.68;100662.41;4994854;28;20485;-45
2021/07/15 04:23:30;;;;;;;13.80;7.67;;;;;;;21.16;71.02;100667.63;4996151;28;20460;-46
2021/07/15 04:25:59;;;;;;;6.30;4.00;;;;;;;21.22;71.12;100665.88;4994619;28;20473;-52
2021/07/15 04:28:26;;;;;;;7.00;4.30;;;;;;;21.12;71.21;100658.03;4996382;28;20460;-46
2021/07/15 04:30:55;;;;;;;6.40;4.37;;;;;;;21.18;71.08;100659.78;4994686;28;20493;-45
2021/07/15 04:33:25;;;;;;;6.00;2.77;;;;;;;21.11;70.77;100661.53;4996015;28;20461;-48
2021/07/15 04:35:55;;;;;;;8.43;2.93;;;;;;;20.85;70.75;100662.47;4994561;28;20466;-49
2021/07/15 04:38:24;;;;;;;6.70;2.57;;;;;;;20.87;71.30;100662.50;4998700;28;20580;-49
2021/07/15 04:40:53;;;;;;;6.13;2.50;;;;;;;21.04;70.91;100662.44;4994825;28;20782;-48
2021/07/15 04:43:20;;;;;;;9.17;2.90;;;;;;;20.99;71.10;100665.06;4998299;28;20784;-47
2021/07/15 04:45:48;;;;;;;5.33;3.47;;;;;;;21.22;70.72;100671.13;4994520;28;20776;-48
2021/07/15 04:48:17;;;;;;;4.50;2.30;;;;;;;21.22;70.09;100669.34;4995663;28;20493;-51
2021/07/15 04:50:45;;;;;;;4.07;2.27;;;;;;;21.20;70.22;100673.75;4994456;28;21048;-47
2021/07/15 04:53:19;;;;;;;6.43;2.87;;;;;;;21.27;69.72;100679.84;4995799;28;20515;-50
2021/07/15 04:55:47;;;;;;;10.93;7.30;;;;;;;21.20;70.07;100684.22;4994201;28;20836;-47
2021/07/15 04:58:15;;;;;;;31.00;17.17;;;;;;;21.19;69.66;100674.63;4995625;28;20495;-49
2021/07/15 05:00:43;;;;;;;15.50;10.80;;;;;;;21.16;70.07;100666.75;4994547;28;20484;-48
2021/07/15 05:03:16;;;;;;;5.10;2.70;;;;;;;21.21;70.07;100664.97;4995545;28;20561;-48
2021/07/15 05:05:44;;;;;;;4.50;2.80;;;;;;;21.34;69.95;100665.81;4994546;28;20524;-47
2021/07/15 05:08:11;;;;;;;6.50;2.80;;;;;;;21.36;70.08;100678.91;4995662;28;20503;-49
2021/07/15 05:10:40;;;;;;;8.60;4.10;;;;;;;21.38;69.79;100680.66;4995568;28;20608;-47
2021/07/15 05:13:08;;;;;;;12.90;5.30;;;;;;;21.55;69.23;100679.72;4995054;28;20465;-50
2021/07/15 05:15:35;;;;;;;10.77;5.80;;;;;;;21.51;69.62;100672.72;4995300;28;20461;-47
2021/07/15 05:18:03;;;;;;;3.03;2.33;;;;;;;21.62;69.52;100664.78;4994189;28;20486;-50
2021/07/15 05:20:31;;;;;;;4.37;2.30;;;;;;;21.43;69.39;100681.50;4995685;28;20504;-50
2021/07/15 05:22:58;;;;;;;6.00;2.97;;;;;;;21.47;69.28;100684.13;4994036;28;20851;-51
2021/07/15 05:25:26;;;;;;;4.43;2.90;;;;;;;21.56;69.60;100681.44;4995304;28;20461;-50
2021/07/15 05:27:55;;;;;;;5.40;3.00;;;;;;;21.69;69.21;100683.16;4994029;28;20520;-51
2021/07/15 05:30:22;;;;;;;6.60;2.90;;;;;;;21.83;68.95;100680.47;4995164;28;20496;-49
2021/07/15 05:32:50;;;;;;;4.53;2.70;;;;;;;21.88;69.19;100680.41;4993793;28;20490;-51
2021/07/15 05:35:18;;;;;;;9.20;3.47;;;;;;;21.47;69.02;100687.59;4995442;28;20897;-47
2021/07/15 05:37:45;;;;;;;6.47;4.10;;;;;;;21.41;69.13;100680.66;4996262;28;20489;-49
2021/07/15 05:40:15;;;;;;;5.40;3.47;;;;;;;21.37;69.18;100688.56;4995450;28;20474;-50
2021/07/15 05:42:42;;;;;;;4.90;3.60;;;;;;;21.44;69.34;100682.41;4993704;28;20485;-47
2021/07/15 05:45:11;;;;;;;8.37;4.17;;;;;;;21.53;69.37;100684.97;4995432;28;20776;-49
2021/07/15 05:47:38;;;;;;;4.90;2.90;;;;;;;21.44;69.55;100679.78;4993643;28;20492;-48
2021/07/15 05:50:07;;;;;;;6.27;3.73;;;;;;;21.54;69.69;100688.47;4995426;28;20485;-51
2021/07/15 05:52:34;;;;;;;10.57;3.90;;;;;;;21.73;68.95;100686.63;4994016;28;20864;-47
2021/07/15 05:55:09;;;;;;;5.90;3.53;;;;;;;21.84;68.88;100676.94;4995239;28;20469;-49
2021/07/15 05:57:36;;;;;;;9.37;5.33;;;;;;;21.83;68.55;100684.81;4993705;28;20496;-48
2021/07/15 06:00:06;;;;;;;7.37;4.27;;;;;;;21.79;68.70;100693.63;4995275;28;20493;-49
2021/07/15 06:02:35;;;;;;;8.03;4.33;;;;;;;21.81;68.29;100697.09;4994022;28;20485;-48
2021/07/15 06:05:23;;;;;;;6.53;3.33;;;;;;;21.84;68.51;100697.09;4995104;28;20454;-50
2021/07/15 06:07:51;;;;;;;9.43;4.20;;;;;;;21.74;68.72;100700.66;4993600;28;20482;-48
2021/07/15 06:10:19;;;;;;;6.90;4.13;;;;;;;21.79;68.65;100704.97;4996505;28;20969;-46
2021/07/15 06:12:47;;;;;;;7.63;4.50;;;;;;;21.60;69.38;100714.69;4997205;28;20482;-49
2021/07/15 06:15:14;;;;;;;9.87;4.73;;;;;;;21.68;69.26;100726.00;4998788;28;20462;-48
2021/07/15 06:17:43;;;;;;;8.70;4.90;;;;;;;21.76;69.23;100733.00;4996337;28;20572;-48
2021/07/15 06:20:13;;;;;;;7.40;5.40;;;;;;;21.92;68.38;100732.06;4998490;28;20477;-48
2021/07/15 06:22:41;;;;;;;10.57;5.53;;;;;;;21.85;68.83;100735.59;4997241;28;20568;-49
2021/07/15 06:25:10;;;;;;;8.30;5.70;;;;;;;22.14;68.34;100737.16;4998562;28;20849;-46
2021/07/15 06:27:37;;;;;;;7.53;4.83;;;;;;;22.43;67.73;100733.44;4996800;28;20490;-48
2021/07/15 06:30:06;;;;;;;9.43;4.67;;;;;;;22.46;67.68;100728.16;4998167;28;20485;-50
2021/07/15 06:32:34;;;;;;;12.13;5.10;;;;;;;22.37;67.57;100738.75;4999199;28;20486;-48
2021/07/15 06:35:03;;;;;;;7.20;4.50;;;;;;;22.26;67.65;100739.69;5000918;28;20468;-47
2021/07/15 06:37:34;;;;;;;11.60;6.27;;;;;;;22.41;67.78;100735.22;4996391;28;20482;-50
2021/07/15 06:40:02;;;;;;;8.00;4.70;;;;;;;22.61;67.05;100726.34;4998198;28;20486;-50
2021/07/15 06:42:29;;;;;;;9.00;5.70;;;;;;;22.47;67.18;100722.03;4996660;28;20482;-47
2021/07/15 06:44:57;;;;;;;7.17;4.57;;;;;;;22.56;66.99;100728.13;4997898;28;20477;-49
2021/07/15 06:47:24;;;;;;;11.30;5.20;;;;;;;22.74;67.25;100727.06;4996228;28;20517;-50
2021/07/15 06:49:52;;;;;;;9.23;4.60;;;;;;;22.72;66.71;100727.09;4998152;28;20482;-48
2021/07/15 06:52:22;;;;;;;10.03;4.27;;;;;;;22.94;66.08;100734.78;4996464;28;20494;-50
2021/07/15 06:54:52;;;;;;;10.80;5.60;;;;;;;23.06;66.15;100736.41;4997998;28;20855;-49
2021/07/15 06:57:20;;;;;;;10.93;6.60;;;;;;;22.86;65.91;100734.00;4996171;28;20806;-48
2021/07/15 06:59:48;;;;;;;9.93;7.20;;;;;;;22.81;66.03;100734.00;4997642;28;20489;-49
2021/07/15 07:02:16;;;;;;;12.53;6.30;;;;;;;23.00;65.80;100741.72;4996346;28;20478;-49
2021/07/15 07:04:44;;;;;;;11.80;6.77;;;;;;;23.21;64.89;100738.00;4997772;28;20897;-48
2021/07/15 07:07:11;;;;;;;10.27;5.63;;;;;;;23.29;64.70;100745.81;4995963;28;20485;-51
2021/07/15 07:09:40;;;;;;;12.63;5.20;;;;;;;23.18;65.41;100749.41;4997733;28;20482;-47
2021/07/15 07:12:08;;;;;;;10.90;6.90;;;;;;;23.01;65.23;100741.72;4996240;28;20486;-52
2021/07/15 07:14:36;;;;;;;12.70;8.40;;;;;;;23.09;65.12;100746.91;4997897;28;20462;-47
2021/07/15 07:17:04;;;;;;;13.67;7.90;;;;;;;23.15;64.77;100748.59;4995041;28;20490;-47
2021/07/15 07:19:31;;;;;;;9.93;6.83;;;;;;;23.17;64.57;100747.69;4997443;28;20769;-50
2021/07/15 07:21:59;;;;;;;12.30;7.23;;;;;;;23.15;64.59;100748.59;4995948;28;20478;-46
2021/07/15 07:24:26;;;;;;;15.43;8.13;;;;;;;22.93;65.00;100757.56;4997413;28;20465;-49
2021/07/15 07:26:55;;;;;;;13.57;7.80;;;;;;;22.96;65.46;100758.44;4995366;28;20949;-49
2021/07/15 07:29:23;;;;;;;16.53;12.10;;;;;;;23.11;65.05;100762.69;4996993;28;20558;-49
2021/07/15 07:31:50;;;;;;;10.27;6.70;;;;;;;23.24;64.69;100768.66;4995738;28;20498;-49
2021/07/15 07:34:19;;;;;;;20.63;14.37;;;;;;;23.34;64.31;100762.47;4997418;28;20812;-48
2021/07/15 07:36:47;;;;;;;19.00;7.10;;;;;;;23.74;63.89;100769.00;4995152;28;20920;-48
2021/07/15 07:39:15;;;;;;;12.20;8.80;;;;;;;23.60;63.31;100767.38;4996998;28;20458;-52
2021/07/15 07:41:43;;;;;;;14.00;8.07;;;;;;;23.58;62.67;100774.44;4995478;28;20482;-50
2021/07/15 07:44:12;;;;;;;10.77;7.27;;;;;;;23.66;62.46;100773.47;4997033;28;20784;-50
2021/07/15 07:46:39;;;;;;;24.33;15.83;;;;;;;23.55;62.92;100769.25;4997565;28;20931;-48
2021/07/15 07:49:07;;;;;;;12.13;8.00;;;;;;;23.58;62.88;100765.69;4996914;28;20556;-52
2021/07/15 07:51:35;;;;;;;21.40;13.27;;;;;;;23.64;62.72;100765.59;4995319;28;20484;-51
2021/07/15 07:54:04;;;;;;;20.77;14.23;;;;;;;23.67;62.89;100776.09;4996864;28;20947;-50
2021/07/15 07:56:32;;;;;;;14.80;7.60;;;;;;;23.76;62.60;100775.13;4995148;28;20490;-49
2021/07/15 07:59:00;;;;;;;11.27;7.40;;;;;;;23.56;63.24;100770.97;4996785;28;20458;-49
2021/07/15 08:01:30;;;;;;;10.27;7.83;;;;;;;23.66;62.88;100765.56;4995044;28;20484;-47
2021/07/15 08:03:57;;;;;;;11.50;7.87;;;;;;;23.92;62.12;100772.25;4996690;28;20459;-48
2021/07/15 08:06:26;;;;;;;16.87;9.50;;;;;;;24.00;61.50;100773.91;4994771;28;20903;-48
2021/07/15 08:08:54;;;;;;;10.07;7.00;;;;;;;24.19;61.19;100770.19;4996475;28;20462;-48
2021/07/15 08:11:21;;;;;;;12.67;7.80;;;;;;;24.23;60.91;100761.31;4995158;28;20493;-47
2021/07/15 08:13:49;;;;;;;15.27;8.40;;;;;;;24.34;61.17;100764.66;4996464;28;20489;-49
2021/07/15 08:16:16;;;;;;;18.50;13.40;;;;;;;24.16;60.50;100770.22;4994659;28;21031;-47
2021/07/15 08:18:45;;;;;;;10.37;6.93;;;;;;;24.35;59.74;100768.19;4996540;28;20469;-48
2021/07/15 08:21:13;;;;;;;16.30;7.50;;;;;;;24.36;59.54;100777.81;4995045;28;20527;-47
2021/07/15 08:23:40;;;;;;;12.90;8.33;;;;;;;24.50;59.03;100772.34;4996321;28;20463;-48
2021/07/15 08:26:08;;;;;;;14.10;8.30;;;;;;;24.47;59.52;100783.81;4994622;28;20478;-48
2021/07/15 08:28:35;;;;;;;9.43;6.40;;;;;;;24.81;58.70;100780.63;4996069;28;20469;-47
2021/07/15 08:31:03;;;;;;;11.33;6.93;;;;;;;25.00;58.70;100779.41;4995122;28;20565;-48
2021/07/15 08:33:31;;;;;;;16.13;9.50;;;;;;;25.22;57.68;100779.88;4997015;28;20489;-52
2021/07/15 08:36:00;;;;;;;9.73;6.50;;;;;;;25.18;57.16;100789.63;4994109;28;20469;-47
2021/07/15 08:38:27;;;;;;;17.33;11.63;;;;;;;25.09;58.68;100784.53;4996222;28;20462;-49
2021/07/15 08:40:55;;;;;;;10.53;6.27;;;;;;;24.97;58.70;100795.31;4997443;28;20487;-49
2021/07/15 08:43:23;;;;;;;8.80;6.13;;;;;;;24.92;58.69;100804.16;4995682;28;20454;-49
2021/07/15 08:45:52;;;;;;;16.70;11.60;;;;;;;24.92;59.04;100798.91;4994472;28;20923;-50
2021/07/15 08:48:20;;;;;;;15.33;10.10;;;;;;;24.82;59.52;100792.06;4995697;28;20580;-48
2021/07/15 08:50:50;;;;;;;12.43;6.50;;;;;;;24.73;58.22;100786.88;4994875;28;20492;-52
2021/07/15 08:53:20;;;;;;;8.67;6.73;;;;;;;24.88;58.31;100788.44;4995699;28;20494;-46
2021/07/15 08:58:33;;;;;;;11.27;7.20;;;;;;;24.83;57.88;100792.91;4995726;28;20853;-51
2021/07/15 09:01:00;;;;;;;14.73;7.80;;;;;;;24.76;58.36;100787.72;4994256;28;20474;-50
2021/07/15 09:03:28;;;;;;;10.20;6.40;;;;;;;24.95;58.41;100787.41;4995877;28;20486;-51
2021/07/15 09:05:56;;;;;;;10.87;7.20;;;;;;;24.72;58.37;100790.44;4994496;28;20548;-49
2021/07/15 09:08:25;;;;;;;10.83;6.60;;;;;;;24.80;58.42;100791.16;4995629;28;20464;-52
2021/07/15 09:10:52;;;;;;;10.77;7.00;;;;;;;24.71;58.42;100788.69;4994192;28;20494;-49
2021/07/15 09:13:20;;;;;;;12.37;7.80;;;;;;;24.49;58.53;100794.31;4995253;28;20952;-49
2021/07/15 09:15:49;;;;;;;8.90;6.10;;;;;;;24.35;59.66;100792.75;4994280;28;20504;-53
2021/07/15 09:18:16;;;;;;;15.90;6.63;;;;;;;24.48;58.67;100804.00;4995275;28;20946;-51
2021/07/15 09:20:45;;;;;;;11.90;6.50;;;;;;;24.59;59.01;100805.56;4994473;28;20787;-52
2021/07/15 09:23:14;;;;;;;10.10;6.43;;;;;;;24.57;58.74;100797.72;4995204;28;20805;-53
2021/07/15 09:25:58;;;;;;;9.93;5.97;;;;;;;24.51;57.32;100793.38;4994120;28;20484;-53
2021/07/15 09:28:31;;;;;;;11.43;8.60;;;;;;;24.63;58.13;100797.63;4995449;28;20473;-51
2021/07/15 09:31:14;;;;;;;10.97;6.90;;;;;;;24.75;58.69;100801.78;4994864;28;20484;-49
2021/07/15 09:33:43;;;;;;;9.40;6.73;;;;;;;24.72;57.88;100799.22;4995476;28;20939;-50
2021/07/15 09:36:16;;;;;;;8.40;6.10;;;;;;;24.88;57.18;100791.06;4994411;28;20458;-50
2021/07/15 09:38:44;;;;;;;10.20;7.80;;;;;;;25.18;55.42;100800.19;4995814;28;20458;-47
2021/07/15 09:41:17;;;;;;;10.00;6.60;;;;;;;25.55;55.78;100800.41;4996696;28;21070;-48
2021/07/15 09:43:45;;;;;;;9.30;6.73;;;;;;;25.67;55.25;100800.16;4995429;28;20480;-51
2021/07/15 09:46:21;;;;;;;7.93;6.03;;;;;;;25.75;55.03;100794.72;4997027;28;20476;-47
2021/07/15 09:48:50;;;;;;;10.97;5.93;;;;;;;25.74;53.67;100796.50;4999391;28;20454;-50
2021/07/15 09:51:19;;;;;;;8.30;5.90;;;;;;;25.95;53.90;100796.91;4997954;28;20478;-46
2021/07/15 09:53:48;;;;;;;7.50;5.30;;;;;;;25.82;53.29;100806.00;4999140;28;20486;-47
2021/07/15 09:56:18;;;;;;;12.23;6.80;;;;;;;25.61;53.89;100805.56;4997591;28;20916;-50
2021/07/15 09:58:47;;;;;;;14.57;8.90;;;;;;;25.36;55.44;100798.09;4998831;28;20896;-51
2021/07/15 10:01:16;;;;;;;14.50;7.00;;;;;;;25.10;55.82;100802.09;4997730;28;20474;-50
2021/07/15 10:03:46;;;;;;;9.90;6.73;;;;;;;25.13;55.59;100798.53;4999241;28;20520;-51
2021/07/15 10:06:15;;;;;;;12.47;7.00;;;;;;;25.19;56.65;100795.78;4997536;28;20569;-50
2021/07/15 10:08:45;;;;;;;9.50;6.53;;;;;;;25.23;55.83;100796.59;4998706;28;20453;-50
2021/07/15 10:11:22;;;;;;;15.37;11.33;;;;;;;25.60;55.76;100802.03;4997425;28;20496;-46
2021/07/15 10:14:00;;;;;;;8.70;6.30;;;;;;;25.75;54.81;100806.16;4998979;28;20511;-48
2021/07/15 10:16:29;;;;;;;11.33;7.17;;;;;;;25.71;55.14;100809.78;4997498;28;20828;-47
2021/07/15 10:18:57;;;;;;;10.10;6.13;;;;;;;25.93;53.60;100814.59;4998519;28;20457;-50
2021/07/15 10:21:26;;;;;;;11.80;6.87;;;;;;;26.08;53.17;100818.66;4997437;28;20492;-50
2021/07/15 10:23:54;;;;;;;12.10;6.13;;;;;;;26.01;53.88;100817.91;4998446;28;20462;-49
2021/07/15 10:26:28;;;;;;;9.67;6.73;;;;;;;25.97;53.19;100818.91;4999266;28;20473;-50
2021/07/15 10:28:56;;;;;;;10.13;6.57;;;;;;;26.07;53.55;100823.97;4998478;28;20568;-50
2021/07/15 10:31:25;;;;;;;14.53;8.13;;;;;;;26.20;53.35;100822.81;4996787;28;20934;-51
2021/07/15 10:33:54;;;;;;;10.87;7.43;;;;;;;26.65;54.10;100819.16;4998345;28;20489;-48
2021/07/15 10:36:22;;;;;;;13.50;8.43;;;;;;;26.86;54.14;100808.06;4996587;28;20486;-51
2021/07/15 10:38:51;;;;;;;11.67;7.43;;;;;;;26.74;55.01;100810.13;4998350;28;20541;-47
2021/07/15 10:41:22;;;;;;;11.40;8.23;;;;;;;26.41;54.94;100815.34;4996801;28;20766;-52
2021/07/15 10:43:53;;;;;;;11.10;7.70;;;;;;;26.19;54.77;100818.41;4998196;28;20783;-53
2021/07/15 10:46:26;;;;;;;13.40;7.67;;;;;;;25.90;55.60;100812.03;4996437;28;20478;-48
2021/07/15 10:49:12;;;;;;;13.87;7.67;;;;;;;25.88;55.08;100805.88;5000709;28;20489;-50
2021/07/15 10:51:41;;;;;;;12.90;9.13;;;;;;;26.17;54.89;100812.31;4996831;28;20751;-52
2021/07/15 10:54:08;;;;;;;11.23;6.93;;;;;;;26.37;56.15;100803.97;4998037;28;20486;-51
2021/07/15 10:56:36;;;;;;;12.93;8.57;;;;;;;26.88;55.13;100809.78;4995840;28;20484;-52
2021/07/15 10:59:22;;;;;;;10.80;7.27;;;;;;;27.08;53.36;100811.06;4997738;28;20816;-50
2021/07/15 11:01:49;;;;;;;11.60;7.73;;;;;;;27.15;50.48;100795.84;4996496;28;20478;-49
2021/07/15 11:04:21;;;;;;;13.17;8.87;;;;;;;26.95;52.33;100794.63;4997959;28;20549;-47
2021/07/15 11:06:50;;;;;;;11.40;7.50;;;;;;;27.06;51.48;100805.78;4996164;28;20482;-48
2021/07/15 11:09:29;;;;;;;11.37;8.00;;;;;;;27.28;51.35;100802.53;4997577;28;20871;-48
2021/07/15 11:11:57;;;;;;;10.23;6.63;;;;;;;27.15;51.52;100803.78;4996236;28;20486;-48
2021/07/15 11:14:46;;;;;;;11.10;7.80;;;;;;;26.77;51.65;100807.38;4997767;28;20482;-47
2021/07/15 11:17:32;;;;;;;12.53;8.73;;;;;;;26.76;51.86;100808.28;4995637;28;20573;-48
2021/07/15 11:20:07;;;;;;;11.30;7.90;;;;;;;26.49;52.62;100808.06;4997439;28;20796;-48
2021/07/15 11:22:42;;;;;;;10.47;7.00;;;;;;;26.48;53.85;100806.34;4996143;28;20488;-51
2021/07/15 11:25:11;;;;;;;12.60;7.27;;;;;;;26.40;54.21;100817.09;4997109;28;20464;-46
2021/07/15 11:27:42;;;;;;;10.67;7.80;;;;;;;26.38;55.29;100820.69;4996128;28;20516;-52
2021/07/15 11:30:14;;;;;;;14.23;9.13;;;;;;;26.59;52.97;100823.72;4997477;28;20470;-48
2021/07/15 11:32:42;;;;;;;12.43;8.80;;;;;;;26.71;53.45;100823.41;4996335;28;20934;-48